Time;durP1;ratioP1;P1;durP2;ratioP2;P2;SDS_P1;SDS_P2;PMS_P1;PMS_P2;Temp;Humidity;BMP_temperature;BMP_pressure;BME280_temperature;BME280_humidity;BME280_pressure;Samples;Min_cycle;Max_cycle;Signal;HPM_P1;HPM_P2
2021/07/01 00:00:12;;;;;;;1.13;0.50;;;12.80;99.90;;;;;;5017940;28;20029;-83
2021/07/01 00:02:38;;;;;;;1.15;0.40;;;12.80;99.90;;;;;;5014044;28;20065;-84
2021/07/01 00:05:06;;;;;;;2.45;0.70;;;12.80;99.90;;;;;;5013926;28;20037;-84
2021/07/01 00:07:32;;;;;;;1.00;0.32;;;12.90;99.90;;;;;;5014134;28;20032;-84
2021/07/01 00:09:57;;;;;;;0.85;0.20;;;12.80;99.90;;;;;;5022802;28;20063;-84
2021/07/01 00:12:23;;;;;;;1.20;0.30;;;12.90;99.90;;;;;;5033878;28;20029;-83
2021/07/01 00:14:49;;;;;;;0.55;0.20;;;12.90;99.90;;;;;;5032766;28;20034;-83
2021/07/01 00:17:15;;;;;;;1.17;0.40;;;12.90;99.90;;;;;;5033863;28;20026;-83
2021/07/01 00:19:40;;;;;;;0.80;0.30;;;12.90;99.90;;;;;;5018928;28;20041;-84
2021/07/01 00:22:06;;;;;;;3.53;0.40;;;13.00;99.90;;;;;;5015425;28;20077;-85
2021/07/01 00:24:31;;;;;;;0.75;0.30;;;13.00;99.90;;;;;;5020388;28;20029;-83
2021/07/01 00:26:57;;;;;;;1.00;0.28;;;13.00;99.90;;;;;;5033500;28;20030;-83
2021/07/01 00:29:23;;;;;;;1.23;0.40;;;12.90;99.90;;;;;;5019308;28;20037;-83
2021/07/01 00:31:48;;;;;;;1.08;0.30;;;12.90;99.90;;;;;;5014280;28;20022;-84
2021/07/01 00:34:14;;;;;;;0.65;0.20;;;12.90;99.90;;;;;;5012928;28;20069;-84
2021/07/01 00:36:40;;;;;;;1.05;0.40;;;12.90;99.90;;;;;;5013870;28;20038;-84
2021/07/01 00:39:06;;;;;;;1.02;0.30;;;12.90;99.90;;;;;;5013087;28;20030;-83
2021/07/01 00:41:33;;;;;;;0.93;0.40;;;12.90;99.90;;;;;;5014335;28;20026;-83
2021/07/01 00:44:01;;;;;;;1.33;0.50;;;12.90;99.90;;;;;;5013725;28;20077;-84
2021/07/01 00:46:27;;;;;;;0.90;0.32;;;12.90;99.90;;;;;;5023095;28;20025;-84
2021/07/01 00:48:52;;;;;;;1.08;0.30;;;12.90;99.90;;;;;;5015500;28;20026;-85
2021/07/01 00:51:18;;;;;;;0.63;0.30;;;12.80;99.90;;;;;;5012494;28;20024;-83
2021/07/01 00:53:44;;;;;;;4.82;0.30;;;12.90;99.90;;;;;;5014032;28;20499;-83
2021/07/01 00:56:10;;;;;;;1.52;0.50;;;12.80;99.90;;;;;;5013977;28;20026;-84
2021/07/01 00:58:39;;;;;;;0.68;0.20;;;12.90;99.90;;;;;;5013934;28;20049;-84
2021/07/01 01:01:05;;;;;;;1.23;0.20;;;12.90;99.90;;;;;;5014012;28;20030;-84
2021/07/01 01:03:36;;;;;;;0.50;0.20;;;12.80;99.90;;;;;;5014260;28;20049;-85
2021/07/01 01:06:03;;;;;;;2.25;0.30;;;12.80;99.90;;;;;;5014742;28;20057;-84
2021/07/01 01:08:30;;;;;;;0.50;0.20;;;12.80;99.90;;;;;;5012469;28;20026;-88
2021/07/01 01:10:55;;;;;;;0.45;0.30;;;12.80;99.90;;;;;;5012389;28;20104;-84
2021/07/01 01:13:24;;;;;;;0.93;0.40;;;12.80;99.90;;;;;;5014179;28;20444;-86
2021/07/01 01:16:01;;;;;;;0.75;0.30;;;12.80;99.90;;;;;;5031021;28;20029;-84
2021/07/01 01:18:27;;;;;;;0.57;0.20;;;12.80;99.90;;;;;;5045748;28;20029;-84
2021/07/01 01:20:55;;;;;;;0.45;0.22;;;12.90;99.90;;;;;;5033283;28;20068;-84
2021/07/01 01:23:21;;;;;;;0.55;0.22;;;12.90;99.90;;;;;;5025661;28;20051;-84
2021/07/01 01:25:48;;;;;;;0.40;0.13;;;12.80;99.90;;;;;;5037204;28;20030;-84
2021/07/01 01:28:15;;;;;;;1.25;0.30;;;12.80;99.90;;;;;;5036114;28;20032;-84
2021/07/01 01:30:41;;;;;;;0.88;0.40;;;12.70;99.90;;;;;;5031474;28;20022;-84
2021/07/01 01:33:07;;;;;;;1.00;0.22;;;12.80;99.90;;;;;;5036429;28;20072;-84
2021/07/01 01:35:34;;;;;;;0.25;0.10;;;12.80;99.90;;;;;;5036042;28;20025;-84
2021/07/01 01:38:00;;;;;;;0.63;0.30;;;12.70;99.90;;;;;;5037238;28;20454;-85
2021/07/01 01:40:26;;;;;;;0.40;0.10;;;12.80;99.90;;;;;;5031081;28;20404;-85
2021/07/01 01:42:52;;;;;;;0.88;0.28;;;12.80;99.90;;;;;;5016552;28;20026;-86
2021/07/01 01:45:17;;;;;;;1.65;0.30;;;12.80;99.90;;;;;;5032132;28;20089;-84
2021/07/01 01:47:47;;;;;;;0.95;0.30;;;12.90;99.90;;;;;;5027578;28;20034;-84
2021/07/01 01:50:19;;;;;;;0.57;0.20;;;12.90;99.90;;;;;;5035416;28;20109;-84
2021/07/01 01:52:46;;;;;;;0.55;0.20;;;12.80;99.90;;;;;;5035217;28;20025;-84
2021/07/01 01:55:13;;;;;;;2.00;0.50;;;12.80;99.90;;;;;;5036181;28;20025;-83
2021/07/01 01:57:44;;;;;;;0.50;0.20;;;12.90;99.90;;;;;;5026253;28;20026;-84
2021/07/01 02:00:11;;;;;;;0.75;0.32;;;12.90;99.90;;;;;;5015191;28;20168;-83
2021/07/01 02:02:37;;;;;;;0.80;0.30;;;13.00;99.90;;;;;;5016937;28;20025;-84
2021/07/01 02:05:04;;;;;;;0.82;0.20;;;13.00;99.90;;;;;;5015095;28;20030;-84
2021/07/01 02:07:30;;;;;;;2.72;0.20;;;13.00;99.90;;;;;;5016583;28;20101;-84
2021/07/01 02:09:55;;;;;;;1.33;0.30;;;12.90;99.90;;;;;;5014992;28;20495;-84
2021/07/01 02:12:21;;;;;;;0.50;0.20;;;12.90;99.90;;;;;;5014645;28;20029;-84
2021/07/01 02:14:46;;;;;;;0.43;0.20;;;12.90;99.90;;;;;;5016028;28;20038;-85
2021/07/01 02:17:12;;;;;;;0.50;0.20;;;13.00;99.90;;;;;;5015710;28;20503;-84
2021/07/01 02:19:38;;;;;;;0.50;0.20;;;12.90;99.90;;;;;;5030589;28;20030;-84
2021/07/01 02:22:03;;;;;;;1.65;0.35;;;12.90;99.90;;;;;;5016636;28;20026;-84
2021/07/01 02:24:29;;;;;;;0.75;0.30;;;12.90;99.90;;;;;;5029569;28;20025;-84
2021/07/01 02:26:55;;;;;;;0.75;0.20;;;12.90;99.90;;;;;;5015079;28;20026;-84
2021/07/01 02:29:20;;;;;;;0.57;0.20;;;12.80;99.90;;;;;;5015738;28;20037;-84
2021/07/01 02:31:46;;;;;;;1.40;0.20;;;12.80;99.90;;;;;;5016672;28;20116;-84
2021/07/01 02:34:11;;;;;;;0.52;0.20;;;12.80;99.90;;;;;;5016517;28;20036;-84
2021/07/01 02:36:42;;;;;;;0.73;0.30;;;12.90;99.90;;;;;;5014529;28;20169;-86
2021/07/01 02:39:08;;;;;;;6.40;0.47;;;12.90;99.90;;;;;;5014426;28;20034;-85
2021/07/01 02:41:34;;;;;;;1.55;0.30;;;12.90;99.90;;;;;;5015478;28;20040;-85
2021/07/01 02:44:00;;;;;;;0.70;0.30;;;12.90;99.90;;;;;;5015038;28;20034;-86
2021/07/01 02:46:26;;;;;;;1.15;0.35;;;12.90;99.90;;;;;;5014357;28;20550;-85
2021/07/01 02:48:52;;;;;;;1.05;0.25;;;12.90;99.90;;;;;;5015259;28;20080;-87
2021/07/01 02:51:17;;;;;;;1.05;0.20;;;12.90;99.90;;;;;;5015055;28;20030;-86
2021/07/01 02:53:43;;;;;;;0.40;0.20;;;13.00;99.90;;;;;;5016580;28;20092;-85
2021/07/01 02:56:09;;;;;;;0.30;0.15;;;13.00;99.90;;;;;;5015289;28;20057;-86
2021/07/01 02:58:34;;;;;;;1.98;0.32;;;12.90;99.90;;;;;;5031174;28;20037;-85
2021/07/01 03:01:01;;;;;;;1.00;0.30;;;12.90;99.90;;;;;;5014980;28;20049;-85
2021/07/01 03:03:26;;;;;;;0.63;0.30;;;12.90;99.90;;;;;;5015130;28;20038;-85
2021/07/01 03:05:52;;;;;;;2.45;0.90;;;12.80;99.90;;;;;;5016523;28;20026;-85
2021/07/01 03:08:18;;;;;;;7.68;1.23;;;12.80;99.90;;;;;;5015467;28;20080;-85
2021/07/01 03:10:43;;;;;;;8.52;2.97;;;12.90;99.90;;;;;;5015746;28;20025;-86
2021/07/01 03:13:09;;;;;;;6.13;2.15;;;12.80;99.90;;;;;;5014854;28;20021;-85
2021/07/01 03:15:36;;;;;;;5.85;1.52;;;12.70;99.90;;;;;;5015921;28;20096;-86
2021/07/01 03:18:01;;;;;;;5.22;1.17;;;12.70;99.90;;;;;;5025820;28;20029;-85
2021/07/01 03:20:27;;;;;;;3.20;0.80;;;12.80;99.90;;;;;;5030010;28;20149;-85
2021/07/01 03:22:52;;;;;;;1.20;0.40;;;12.70;99.90;;;;;;5033992;28;20029;-86
2021/07/01 03:25:18;;;;;;;1.33;0.40;;;12.80;99.90;;;;;;5033468;28;20110;-86
2021/07/01 03:27:44;;;;;;;1.58;0.35;;;12.80;99.90;;;;;;5015726;28;20049;-85
2021/07/01 03:30:10;;;;;;;1.75;0.40;;;12.80;99.90;;;;;;5015114;28;20058;-84
2021/07/01 03:32:36;;;;;;;1.40;0.38;;;12.70;99.90;;;;;;5015606;28;20018;-85
2021/07/01 03:35:01;;;;;;;1.65;0.30;;;12.70;99.90;;;;;;5014997;28;20072;-85
2021/07/01 03:37:27;;;;;;;0.68;0.20;;;12.80;99.90;;;;;;5014879;28;20097;-84
2021/07/01 03:39:53;;;;;;;1.23;0.40;;;12.70;99.90;;;;;;5013551;28;20030;-85
2021/07/01 03:42:21;;;;;;;1.17;0.43;;;12.80;99.90;;;;;;5015930;28;20044;-85
2021/07/01 03:44:48;;;;;;;0.98;0.30;;;12.80;99.90;;;;;;5030565;28;20038;-85
2021/07/01 03:47:14;;;;;;;0.60;0.30;;;12.80;99.90;;;;;;5013392;28;20029;-85
2021/07/01 03:49:39;;;;;;;0.38;0.20;;;12.80;99.90;;;;;;5013436;28;20018;-85
2021/07/01 03:52:06;;;;;;;1.45;0.40;;;12.80;99.90;;;;;;5014474;28;20030;-86
2021/07/01 03:54:32;;;;;;;1.50;0.30;;;12.80;99.90;;;;;;5014964;28;20022;-86
2021/07/01 03:56:57;;;;;;;0.88;0.32;;;12.90;99.90;;;;;;5015061;28;20079;-86
2021/07/01 03:59:24;;;;;;;0.75;0.30;;;12.90;99.90;;;;;;5014816;28;20029;-85
2021/07/01 04:01:50;;;;;;;1.10;0.22;;;12.90;99.90;;;;;;5028578;28;20160;-85
2021/07/01 04:04:15;;;;;;;0.63;0.30;;;12.90;99.90;;;;;;5039517;28;20513;-85
2021/07/01 04:06:41;;;;;;;0.80;0.20;;;13.00;99.90;;;;;;5034205;28;20017;-84
2021/07/01 04:09:07;;;;;;;0.82;0.20;;;13.00;99.90;;;;;;5025651;28;20495;-88
2021/07/01 04:11:35;;;;;;;1.42;0.25;;;13.00;99.90;;;;;;5023535;28;20467;-85
2021/07/01 04:14:01;;;;;;;0.77;0.20;;;12.90;99.90;;;;;;5040197;28;20071;-85
2021/07/01 04:16:27;;;;;;;1.73;0.30;;;13.00;99.90;;;;;;5050681;28;20017;-85
2021/07/01 04:18:53;;;;;;;0.82;0.35;;;12.90;99.90;;;;;;5052832;28;20297;-85
2021/07/01 04:21:19;;;;;;;3.35;0.32;;;13.00;99.90;;;;;;5017393;28;20032;-86
2021/07/01 04:23:45;;;;;;;1.70;0.50;;;13.00;99.90;;;;;;5024268;28;20033;-85
2021/07/01 04:26:12;;;;;;;1.00;0.40;;;13.00;99.90;;;;;;5032700;28;20034;-85
2021/07/01 04:28:38;;;;;;;1.05;0.40;;;13.00;99.90;;;;;;5032450;28;20023;-86
2021/07/01 04:31:03;;;;;;;1.15;0.32;;;13.10;99.90;;;;;;5028839;28;20112;-85
2021/07/01 04:33:29;;;;;;;1.10;0.50;;;13.10;99.90;;;;;;5030527;28;20029;-86
2021/07/01 04:35:56;;;;;;;0.68;0.20;;;13.20;99.90;;;;;;5035866;28;20037;-86
2021/07/01 04:38:22;;;;;;;1.27;0.40;;;13.00;99.90;;;;;;5025410;28;20034;-86
2021/07/01 04:40:47;;;;;;;0.40;0.20;;;13.00;99.90;;;;;;5025070;28;20112;-85
2021/07/01 04:43:13;;;;;;;1.00;0.40;;;13.00;99.90;;;;;;5038292;28;20022;-86
2021/07/01 04:45:39;;;;;;;1.27;0.50;;;13.00;99.90;;;;;;5046490;28;20453;-86
2021/07/01 04:48:08;;;;;;;3.78;0.47;;;13.00;99.90;;;;;;5036249;28;20071;-85
2021/07/01 04:50:34;;;;;;;1.00;0.35;;;13.10;99.90;;;;;;5040558;28;20021;-85
2021/07/01 04:53:00;;;;;;;0.80;0.35;;;13.10;99.90;;;;;;5028196;28;20514;-84
2021/07/01 04:55:26;;;;;;;3.17;0.47;;;13.20;99.90;;;;;;5033211;28;20498;-85
2021/07/01 04:57:51;;;;;;;3.08;0.50;;;13.20;99.90;;;;;;5030016;28;20164;-85
2021/07/01 05:00:17;;;;;;;1.48;0.40;;;13.30;99.90;;;;;;5034424;28;20435;-85
2021/07/01 05:02:43;;;;;;;2.35;0.50;;;13.20;99.90;;;;;;5038402;28;20037;-85
2021/07/01 05:05:09;;;;;;;1.15;0.50;;;13.20;99.90;;;;;;5033399;28;20431;-85
2021/07/01 05:07:45;;;;;;;2.05;0.43;;;13.20;99.90;;;;;;5042399;28;20108;-86
2021/07/01 05:10:12;;;;;;;2.30;0.65;;;13.30;99.90;;;;;;5032388;28;20188;-85
2021/07/01 05:12:38;;;;;;;1.73;0.60;;;13.30;99.90;;;;;;5038192;28;20154;-85
2021/07/01 05:15:04;;;;;;;1.73;0.63;;;13.30;99.90;;;;;;5042507;28;20064;-85
2021/07/01 05:17:30;;;;;;;1.23;0.60;;;13.30;99.90;;;;;;5032761;28;20026;-85
2021/07/01 05:19:56;;;;;;;3.17;0.68;;;13.40;99.90;;;;;;5032966;28;20032;-85
2021/07/01 05:22:23;;;;;;;1.48;0.68;;;13.40;99.90;;;;;;5034846;28;20084;-85
2021/07/01 05:24:48;;;;;;;1.65;0.55;;;13.50;99.90;;;;;;5037672;28;20048;-85
2021/07/01 05:27:14;;;;;;;2.97;0.73;;;13.60;99.90;;;;;;5041268;28;20029;-85
2021/07/01 05:29:40;;;;;;;0.70;0.40;;;13.60;99.90;;;;;;5050270;28;20028;-86
2021/07/01 05:32:06;;;;;;;1.35;0.65;;;13.60;99.90;;;;;;5034230;28;20025;-85
2021/07/01 05:34:31;;;;;;;1.73;0.38;;;13.50;99.90;;;;;;5041040;28;20116;-86
2021/07/01 05:36:57;;;;;;;1.08;0.47;;;13.40;99.90;;;;;;5034537;28;20083;-85
2021/07/01 05:39:22;;;;;;;0.98;0.38;;;13.50;99.90;;;;;;5036366;23;20092;-82
2021/07/01 05:41:48;;;;;;;1.25;0.52;;;13.50;99.90;;;;;;5019227;28;20037;-82
2021/07/01 05:44:14;;;;;;;1.33;0.45;;;13.50;99.90;;;;;;5001818;28;20057;-82
2021/07/01 05:46:40;;;;;;;1.02;0.50;;;13.60;99.90;;;;;;5011643;28;20017;-82
2021/07/01 05:49:05;;;;;;;1.77;0.50;;;13.60;99.90;;;;;;5025695;28;20097;-82
2021/07/01 05:51:34;;;;;;;0.98;0.40;;;13.70;99.90;;;;;;5014319;28;20094;-82
2021/07/01 05:56:43;;;;;;;1.92;0.60;;;13.70;99.90;;;;;;5005805;28;20156;-82
2021/07/01 05:59:10;;;;;;;0.70;0.40;;;13.70;99.90;;;;;;5015314;28;20081;-82
2021/07/01 06:01:37;;;;;;;1.90;0.43;;;13.70;99.90;;;;;;5014615;28;20030;-82
2021/07/01 06:04:04;;;;;;;1.15;0.50;;;13.80;99.90;;;;;;5009592;28;20057;-83
2021/07/01 06:06:36;;;;;;;1.02;0.50;;;13.70;99.90;;;;;;4994473;28;20033;-82
2021/07/01 06:09:04;;;;;;;1.00;0.40;;;13.70;99.90;;;;;;4993900;28;20030;-82
2021/07/01 06:11:32;;;;;;;1.17;0.40;;;13.80;99.90;;;;;;5012554;28;20018;-82
2021/07/01 06:13:58;;;;;;;1.42;0.50;;;13.80;99.90;;;;;;5014822;28;20049;-83
2021/07/01 06:16:26;;;;;;;1.83;0.50;;;13.90;99.90;;;;;;5015858;28;20026;-82
2021/07/01 06:18:52;;;;;;;1.63;0.52;;;14.00;99.90;;;;;;5012730;28;20092;-82
2021/07/01 06:21:18;;;;;;;1.42;0.57;;;14.00;99.90;;;;;;5013144;28;20551;-82
2021/07/01 06:23:46;;;;;;;4.47;0.80;;;14.00;99.90;;;;;;5013092;28;20038;-82
2021/07/01 06:26:13;;;;;;;1.08;0.45;;;14.10;99.90;;;;;;5007846;28;20126;-82
2021/07/01 06:28:40;;;;;;;0.93;0.47;;;14.10;99.90;;;;;;5011812;28;20033;-80
2021/07/01 06:31:07;;;;;;;1.48;0.52;;;14.00;99.90;;;;;;5011174;28;20032;-81
2021/07/01 06:33:34;;;;;;;2.20;0.68;;;14.00;99.90;;;;;;5005117;28;20796;-82
2021/07/01 06:36:01;;;;;;;1.33;0.50;;;14.00;99.90;;;;;;5010474;28;20460;-82
2021/07/01 06:38:30;;;;;;;1.25;0.50;;;14.00;99.90;;;;;;5011854;28;20029;-81
2021/07/01 06:40:57;;;;;;;1.88;0.65;;;14.10;99.90;;;;;;5000839;28;20480;-79
2021/07/01 06:43:29;;;;;;;1.33;0.50;;;14.00;99.90;;;;;;5025652;28;20091;-79
2021/07/01 06:45:59;;;;;;;0.88;0.40;;;14.10;99.90;;;;;;5011757;28;20033;-81
2021/07/01 06:48:26;;;;;;;1.33;0.45;;;14.10;99.90;;;;;;5020553;28;20053;-79
2021/07/01 06:50:56;;;;;;;1.40;0.38;;;14.10;99.90;;;;;;4997349;28;20338;-81
2021/07/01 06:53:22;;;;;;;1.00;0.47;;;14.10;99.90;;;;;;4992225;28;20469;-81
2021/07/01 06:55:51;;;;;;;1.33;0.47;;;14.10;99.90;;;;;;5012153;28;20049;-81
2021/07/01 06:58:17;;;;;;;3.25;0.60;;;14.10;99.90;;;;;;5012702;28;20153;-81
2021/07/01 07:00:44;;;;;;;1.20;0.50;;;14.00;99.90;;;;;;5008634;28;20035;-83
2021/07/01 07:03:16;;;;;;;1.58;0.52;;;14.00;99.90;;;;;;5009106;28;20506;-84
2021/07/01 07:05:48;;;;;;;3.47;0.50;;;14.00;99.90;;;;;;5012123;28;20068;-82
2021/07/01 07:08:14;;;;;;;2.20;0.70;;;14.00;99.90;;;;;;5004150;28;20031;-81
2021/07/01 07:10:43;;;;;;;4.72;0.93;;;13.90;99.90;;;;;;5010109;28;20554;-79
2021/07/01 07:13:10;;;;;;;7.10;1.80;;;13.90;99.90;;;;;;5010964;28;20036;-82
2021/07/01 07:15:39;;;;;;;7.20;2.17;;;13.90;99.90;;;;;;5011486;28;20259;-82
2021/07/01 07:18:21;;;;;;;11.32;3.63;;;14.10;99.90;;;;;;5007412;28;20031;-82
2021/07/01 07:20:52;;;;;;;;;;;14.10;99.90;;;;;;5009937;28;20132;-83
2021/07/01 07:23:25;;;;;;;5.93;1.55;;;14.20;99.90;;;;;;5009077;28;19917;-81
2021/07/01 07:26:00;;;;;;;3.58;0.82;;;14.20;99.90;;;;;;5010103;28;20100;-81
2021/07/01 07:28:29;;;;;;;2.08;0.95;;;14.10;99.90;;;;;;5011632;28;20412;-82
2021/07/01 07:30:56;;;;;;;3.05;1.20;;;14.20;99.90;;;;;;5011791;28;20070;-82
2021/07/01 07:33:26;;;;;;;2.92;0.93;;;14.30;99.90;;;;;;5015069;28;20026;-82
2021/07/01 07:35:52;;;;;;;3.45;0.80;;;14.40;99.90;;;;;;5010651;28;20443;-80
2021/07/01 07:38:19;;;;;;;2.25;0.88;;;14.40;99.90;;;;;;5011338;28;20097;-82
2021/07/01 07:40:45;;;;;;;2.28;0.88;;;14.50;99.90;;;;;;5011301;28;20148;-83
2021/07/01 07:43:13;;;;;;;1.77;0.68;;;14.60;99.90;;;;;;5006843;28;20113;-81
2021/07/01 07:45:41;;;;;;;2.58;0.80;;;14.70;99.90;;;;;;5010833;28;20033;-84
2021/07/01 07:48:07;;;;;;;3.17;1.10;;;14.90;99.90;;;;;;5010912;28;20431;-83
2021/07/01 07:50:37;;;;;;;3.88;0.93;;;15.00;99.90;;;;;;5006165;28;20563;-83
2021/07/01 07:53:06;;;;;;;1.88;0.70;;;15.10;99.90;;;;;;5010062;28;20053;-83
2021/07/01 07:55:33;;;;;;;1.77;0.55;;;15.10;99.90;;;;;;5012419;28;20061;-83
2021/07/01 07:58:05;;;;;;;2.45;1.02;;;15.20;99.90;;;;;;5006663;28;20038;-83
2021/07/01 08:00:33;;;;;;;2.03;1.00;;;15.40;99.90;;;;;;5008537;28;20100;-84
2021/07/01 08:03:07;;;;;;;2.25;0.90;;;15.50;99.90;;;;;;5016456;28;20084;-83
2021/07/01 08:05:33;;;;;;;2.25;1.20;;;15.70;99.90;;;;;;5014040;28;20037;-83
2021/07/01 08:08:00;;;;;;;1.15;0.80;;;15.70;99.90;;;;;;5013368;28;20079;-83
2021/07/01 08:10:32;;;;;;;1.92;0.95;;;15.70;99.90;;;;;;5015221;28;20484;-84
2021/07/01 08:13:04;;;;;;;2.78;1.20;;;15.70;99.90;;;;;;5019252;28;20030;-83
2021/07/01 08:15:32;;;;;;;1.67;0.70;;;15.70;99.90;;;;;;5028898;28;20083;-83
2021/07/01 08:17:59;;;;;;;1.92;0.95;;;15.70;99.90;;;;;;4999293;28;20057;-84
2021/07/01 08:20:25;;;;;;;2.35;1.10;;;15.90;99.90;;;;;;5012080;28;20112;-82
2021/07/01 08:22:52;;;;;;;1.88;0.88;;;15.90;99.90;;;;;;5031875;28;20030;-81
2021/07/01 08:25:20;;;;;;;2.78;1.20;;;16.00;99.90;;;;;;5017654;28;20116;-81
2021/07/01 08:27:48;;;;;;;3.28;1.00;;;16.00;99.90;;;;;;4996815;28;20037;-83
2021/07/01 08:30:17;;;;;;;3.15;0.90;;;16.00;99.90;;;;;;4998774;28;20018;-83
2021/07/01 08:32:46;;;;;;;2.30;1.10;;;16.00;99.90;;;;;;5008811;28;20029;-82
2021/07/01 08:35:18;;;;;;;2.13;1.17;;;16.10;99.90;;;;;;5015694;28;20029;-82
2021/07/01 08:37:47;;;;;;;4.03;1.45;;;16.10;99.90;;;;;;5023220;28;20404;-82
2021/07/01 08:40:17;;;;;;;2.13;0.90;;;16.20;99.90;;;;;;5013524;28;20140;-83
2021/07/01 08:42:44;;;;;;;2.00;0.90;;;16.20;99.90;;;;;;5013441;28;20036;-83
2021/07/01 08:45:13;;;;;;;1.58;0.85;;;16.30;99.90;;;;;;5015708;28;20029;-84
2021/07/01 08:47:43;;;;;;;2.92;1.17;;;16.20;99.90;;;;;;5014969;28;20022;-82
2021/07/01 08:50:16;;;;;;;4.55;1.17;;;16.00;99.90;;;;;;5016703;28;20021;-83
2021/07/01 08:53:02;;;;;;;2.42;1.13;;;16.00;99.90;;;;;;5014980;28;20359;-83
2021/07/01 08:55:28;;;;;;;1.88;1.00;;;16.00;99.90;;;;;;5014933;28;20026;-82
2021/07/01 08:57:56;;;;;;;2.67;0.98;;;15.90;99.90;;;;;;5017431;28;20022;-82
2021/07/01 09:00:23;;;;;;;3.05;1.40;;;15.80;99.90;;;;;;5012559;28;20048;-83
2021/07/01 09:03:04;;;;;;;1.85;0.90;;;15.80;99.90;;;;;;5014237;28;20026;-83
2021/07/01 09:05:32;;;;;;;1.92;1.02;;;15.80;99.90;;;;;;5015230;28;20032;-84
2021/07/01 09:07:59;;;;;;;3.78;1.15;;;15.80;99.90;;;;;;5017793;28;20041;-84
2021/07/01 09:10:27;;;;;;;3.05;1.50;;;15.80;99.90;;;;;;5013601;28;20050;-84
2021/07/01 09:12:58;;;;;;;2.13;1.10;;;15.70;99.90;;;;;;5016259;28;20037;-84
2021/07/01 09:15:25;;;;;;;2.30;1.17;;;15.60;99.90;;;;;;5016379;28;20033;-83
2021/07/01 09:17:52;;;;;;;2.22;1.20;;;15.60;99.90;;;;;;5021236;28;20132;-82
2021/07/01 09:20:33;;;;;;;2.92;1.10;;;15.70;99.90;;;;;;5016279;28;20041;-81
2021/07/01 09:22:58;;;;;;;2.85;1.40;;;15.80;99.90;;;;;;5020695;28;20033;-83
2021/07/01 09:25:25;;;;;;;2.67;1.35;;;16.00;99.90;;;;;;5013881;28;20022;-82
2021/07/01 09:27:52;;;;;;;2.08;0.90;;;16.10;99.90;;;;;;5017320;28;20018;-84
2021/07/01 09:30:25;;;;;;;3.25;1.40;;;16.30;99.90;;;;;;5020502;28;20040;-83
2021/07/01 09:32:54;;;;;;;4.35;1.40;;;16.20;99.90;;;;;;5020081;28;20021;-83
2021/07/01 09:35:22;;;;;;;2.90;1.40;;;16.30;99.90;;;;;;5023187;28;20033;-84
2021/07/01 09:37:48;;;;;;;1.80;0.90;;;16.40;99.90;;;;;;5019968;28;20030;-84
2021/07/01 09:40:16;;;;;;;3.70;1.10;;;16.40;99.90;;;;;;5020951;28;20668;-84
2021/07/01 09:42:42;;;;;;;2.78;1.20;;;16.20;99.90;;;;;;5020053;28;20026;-84
2021/07/01 09:45:13;;;;;;;2.65;1.20;;;16.20;99.90;;;;;;5017268;28;20030;-84
2021/07/01 09:47:44;;;;;;;3.35;1.00;;;16.30;99.90;;;;;;5020054;28;20029;-84
2021/07/01 09:50:11;;;;;;;2.75;1.30;;;16.20;99.90;;;;;;5019037;28;20045;-83
2021/07/01 09:52:44;;;;;;;2.25;1.20;;;16.40;99.90;;;;;;5010866;28;20118;-82
2021/07/01 09:55:12;;;;;;;3.58;1.25;;;16.50;99.90;;;;;;5016045;28;20429;-84
2021/07/01 09:57:40;;;;;;;3.78;1.30;;;16.60;99.90;;;;;;5018922;28;20017;-82
2021/07/01 10:00:10;;;;;;;2.42;1.13;;;16.60;99.90;;;;;;5015473;28;20041;-84
2021/07/01 10:02:36;;;;;;;2.45;1.33;;;16.80;99.90;;;;;;5020045;28;20383;-82
2021/07/01 10:05:05;;;;;;;2.90;1.17;;;17.00;99.90;;;;;;5019205;28;20365;-84
2021/07/01 10:07:31;;;;;;;2.20;1.02;;;16.90;99.90;;;;;;5018207;28;20038;-84
2021/07/01 10:09:58;;;;;;;1.88;1.00;;;16.70;99.90;;;;;;5014845;28;20093;-83
2021/07/01 10:12:29;;;;;;;2.22;1.05;;;16.60;99.90;;;;;;5020781;28;20060;-82
2021/07/01 10:14:58;;;;;;;2.55;1.20;;;16.40;99.90;;;;;;5015101;28;20045;-84
2021/07/01 10:17:25;;;;;;;2.28;1.13;;;16.40;99.90;;;;;;5019771;28;20141;-82
2021/07/01 10:20:05;;;;;;;2.45;1.10;;;16.50;99.90;;;;;;5012684;28;20037;-82
2021/07/01 10:22:39;;;;;;;1.50;0.70;;;16.40;99.90;;;;;;5018086;28;20543;-82
2021/07/01 10:25:06;;;;;;;1.83;0.95;;;16.30;99.90;;;;;;5017738;28;20026;-83
2021/07/01 10:27:39;;;;;;;1.27;0.60;;;16.30;99.90;;;;;;5017308;28;20668;-82
2021/07/01 10:30:16;;;;;;;1.63;0.68;;;16.30;99.90;;;;;;5015291;28;20025;-82
2021/07/01 10:32:44;;;;;;;1.65;0.60;;;16.40;99.90;;;;;;5015655;28;20022;-82
2021/07/01 10:35:39;;;;;;;1.85;0.85;;;16.40;99.90;;;;;;5014391;28;20463;-81
2021/07/01 10:38:11;;;;;;;1.90;0.68;;;16.40;99.90;;;;;;4995470;28;20503;-83
2021/07/01 10:40:49;;;;;;;1.15;0.55;;;16.30;99.90;;;;;;5021109;28;20481;-82
2021/07/01 10:43:17;;;;;;;1.17;0.75;;;16.30;99.90;;;;;;5017897;28;20125;-81
2021/07/01 10:45:57;;;;;;;0.85;0.40;;;16.30;99.90;;;;;;5022412;28;20021;-83
2021/07/01 10:48:24;;;;;;;1.48;0.60;;;16.30;99.90;;;;;;5013942;28;20053;-81
2021/07/01 10:50:51;;;;;;;2.80;0.77;;;16.40;99.90;;;;;;5002038;28;20014;-81
2021/07/01 10:53:38;;;;;;;1.65;0.52;;;16.40;99.90;;;;;;5017326;28;20040;-82
2021/07/01 10:56:25;;;;;;;2.15;0.70;;;16.40;99.90;;;;;;5014107;28;20026;-82
2021/07/01 10:58:57;;;;;;;1.27;0.60;;;16.40;99.90;;;;;;5010956;28;20026;-81
2021/07/01 11:01:34;;;;;;;;;;;16.30;99.90;;;;;;5018070;28;20033;-80
2021/07/01 11:04:05;;;;;;;0.80;0.45;;;16.30;99.90;;;;;;5021803;28;19968;-81
2021/07/01 11:06:30;;;;;;;1.75;0.70;;;16.20;99.90;;;;;;5015747;28;20033;-81
2021/07/01 11:08:57;;;;;;;1.10;0.60;;;16.20;99.90;;;;;;5016958;28;20022;-83
2021/07/01 11:11:24;;;;;;;1.15;0.52;;;16.20;99.90;;;;;;5018041;28;20076;-83
2021/07/01 11:13:59;;;;;;;1.30;0.50;;;16.10;99.90;;;;;;5014800;28;20032;-83
2021/07/01 11:16:38;;;;;;;1.20;0.60;;;16.00;99.90;;;;;;5015942;28;20026;-82
2021/07/01 11:19:05;;;;;;;1.45;0.65;;;16.00;99.90;;;;;;5012452;28;20026;-82
2021/07/01 11:21:31;;;;;;;1.50;0.57;;;15.80;99.90;;;;;;5014136;28;20725;-83
2021/07/01 11:24:20;;;;;;;1.63;0.70;;;15.60;99.90;;;;;;5019291;28;20108;-84
2021/07/01 11:26:49;;;;;;;1.58;0.70;;;15.50;99.90;;;;;;5004388;28;20050;-84
2021/07/01 11:29:16;;;;;;;1.50;0.60;;;15.40;99.90;;;;;;5019585;28;20069;-83
2021/07/01 11:31:45;;;;;;;4.13;0.90;;;15.40;99.90;;;;;;5018092;28;20029;-84
2021/07/01 11:34:14;;;;;;;2.58;0.75;;;15.40;99.90;;;;;;5019393;28;20120;-85
2021/07/01 11:36:40;;;;;;;2.50;0.90;;;15.40;99.90;;;;;;5017148;28;20402;-83
2021/07/01 11:39:07;;;;;;;1.98;0.80;;;15.30;99.90;;;;;;5014633;28;20081;-84
2021/07/01 11:41:33;;;;;;;1.77;0.77;;;15.30;99.90;;;;;;5020849;28;20432;-84
2021/07/01 11:43:59;;;;;;;2.50;1.00;;;15.40;99.90;;;;;;5013218;28;20030;-84
2021/07/01 11:46:26;;;;;;;2.67;1.10;;;15.30;99.90;;;;;;5018033;28;20393;-84
2021/07/01 11:48:55;;;;;;;2.33;0.93;;;15.20;99.90;;;;;;5017502;28;20570;-84
2021/07/01 11:51:23;;;;;;;2.60;1.20;;;15.20;99.90;;;;;;5016819;28;20025;-82
2021/07/01 11:53:51;;;;;;;2.20;1.00;;;15.20;99.90;;;;;;5025371;28;20029;-83
2021/07/01 11:56:20;;;;;;;2.58;1.10;;;15.20;99.90;;;;;;5026445;28;20026;-83
2021/07/01 11:58:46;;;;;;;3.33;1.48;;;15.30;99.90;;;;;;5021574;28;20061;-82
2021/07/01 12:01:12;;;;;;;2.35;1.20;;;15.30;99.90;;;;;;5017829;28;20080;-82
2021/07/01 12:03:38;;;;;;;1.95;0.95;;;15.30;99.90;;;;;;5023285;28;20025;-84
2021/07/01 12:06:05;;;;;;;2.50;1.20;;;15.40;99.90;;;;;;5021150;28;20085;-82
2021/07/01 12:08:35;;;;;;;2.20;1.00;;;15.40;99.90;;;;;;5018244;28;20742;-82
2021/07/01 12:11:03;;;;;;;2.45;1.02;;;15.50;99.90;;;;;;5020814;28;20063;-83
2021/07/01 12:13:31;;;;;;;2.72;1.10;;;15.40;99.90;;;;;;5021922;28;20022;-82
2021/07/01 12:16:12;;;;;;;2.17;1.00;;;15.50;99.90;;;;;;5022920;28;20034;-84
2021/07/01 12:18:47;;;;;;;1.90;1.00;;;15.60;99.90;;;;;;5023060;28;20040;-83
2021/07/01 12:21:31;;;;;;;3.00;1.30;;;15.90;99.90;;;;;;5020567;28;20038;-83
2021/07/01 12:23:59;;;;;;;3.22;1.10;;;16.20;99.90;;;;;;5018856;28;20037;-83
2021/07/01 12:26:47;;;;;;;3.00;1.20;;;16.40;99.90;;;;;;5020593;28;20033;-84
2021/07/01 12:29:17;;;;;;;3.85;1.10;;;16.50;99.90;;;;;;5016564;28;20018;-83
2021/07/01 12:31:43;;;;;;;2.47;1.23;;;16.50;99.90;;;;;;5016481;28;20022;-82
2021/07/01 12:34:11;;;;;;;2.95;1.20;;;16.50;99.90;;;;;;5001469;28;20018;-83
2021/07/01 12:36:45;;;;;;;2.33;1.23;;;16.80;99.90;;;;;;5019916;28;20018;-82
2021/07/01 12:39:14;;;;;;;4.88;1.50;;;16.80;99.90;;;;;;5015301;28;20092;-83
2021/07/01 12:41:53;;;;;;;2.75;1.20;;;17.00;99.90;;;;;;5019101;28;20025;-82
2021/07/01 12:44:31;;;;;;;2.55;1.25;;;17.20;99.90;;;;;;5021319;28;20026;-81
2021/07/01 12:47:02;;;;;;;2.40;1.20;;;17.30;99.90;;;;;;5016159;28;20045;-82
2021/07/01 12:49:34;;;;;;;3.42;1.33;;;17.50;99.90;;;;;;5021943;28;20135;-83
2021/07/01 12:52:06;;;;;;;3.97;1.25;;;17.70;99.90;;;;;;5030065;28;20033;-82
2021/07/01 12:54:31;;;;;;;2.70;1.30;;;17.50;99.90;;;;;;5039418;28;20021;-82